createdAt,value
2022-11-15T00:00:08.473Z,90.94
2022-11-15T00:01:08.379Z,91.15
2022-11-15T00:02:08.527Z,90.94
2022-11-15T00:03:08.331Z,90.94
2022-11-15T00:04:08.405Z,90.74
2022-11-15T00:05:08.321Z,91.15
2022-11-15T00:06:08.302Z,91.15
2022-11-15T00:07:08.353Z,90.64
2022-11-15T00:08:08.377Z,90.84
2022-11-15T00:09:08.348Z,90.43
2022-11-15T00:10:08.293Z,90.23
2022-11-15T00:11:08.395Z,90.84
2022-11-15T00:12:08.429Z,91.05
2022-11-15T00:13:08.345Z,90.64
2022-11-15T00:14:08.360Z,90.08
2022-11-15T00:15:08.391Z,90.39
2022-11-15T00:16:08.397Z,90.49
2022-11-15T00:17:08.326Z,90.19
2022-11-15T00:18:08.304Z,90.29
2022-11-15T00:19:08.303Z,90.39
2022-11-15T00:20:09.412Z,90.08
2022-11-15T00:21:08.333Z,90.39
2022-11-15T00:22:08.188Z,89.88
2022-11-15T00:23:08.219Z,89.98
2022-11-15T00:24:08.284Z,89.88
2022-11-15T00:25:08.219Z,90.80
2022-11-15T00:26:08.228Z,89.88
2022-11-15T00:27:09.167Z,90.19
2022-11-15T00:28:08.148Z,90.08
2022-11-15T00:29:08.217Z,90.19
2022-11-15T00:30:08.322Z,90.19
2022-11-15T00:31:08.479Z,90.08
2022-11-15T00:32:08.272Z,90.39
2022-11-15T00:33:08.210Z,90.64
2022-11-15T00:34:08.241Z,90.43
2022-11-15T00:35:08.188Z,90.23
2022-11-15T00:36:08.203Z,90.23
2022-11-15T00:37:08.221Z,89.92
2022-11-15T00:38:08.200Z,90.49
2022-11-15T00:39:08.181Z,90.43
2022-11-15T00:40:08.169Z,90.33
2022-11-15T00:41:09.962Z,90.12
2022-11-15T00:42:09.135Z,90.39
2022-11-15T00:43:08.139Z,90.74
2022-11-15T00:44:08.034Z,90.49
2022-11-15T00:45:08.029Z,90.23
2022-11-15T00:46:08.700Z,90.23
2022-11-15T00:47:08.087Z,90.53
2022-11-15T00:48:08.137Z,90.43
2022-11-15T00:49:08.157Z,90.94
2022-11-15T00:50:10.715Z,90.53
2022-11-15T00:51:08.979Z,90.99
2022-11-15T00:52:08.102Z,90.68
2022-11-15T00:53:08.176Z,90.68
2022-11-15T00:54:08.039Z,91.60
2022-11-15T00:55:08.035Z,91.60
2022-11-15T00:56:08.058Z,90.99
2022-11-15T00:57:08.057Z,90.78
2022-11-15T00:58:08.105Z,91.50
2022-11-15T00:59:08.047Z,91.19
2022-11-15T01:00:08.023Z,91.50
2022-11-15T01:01:08.180Z,90.78
2022-11-15T01:02:07.863Z,90.78
2022-11-15T01:03:07.878Z,90.78
2022-11-15T01:04:07.934Z,90.17
2022-11-15T01:05:07.928Z,91.09
2022-11-15T01:06:07.891Z,91.19
2022-11-15T01:07:08.037Z,90.47
2022-11-15T01:08:07.971Z,90.62
2022-11-15T01:09:07.993Z,90.37
2022-11-15T01:10:08.003Z,90.27
2022-11-15T01:11:07.941Z,90.17
2022-11-15T01:12:08.909Z,90.88
2022-11-15T01:13:07.917Z,90.78
2022-11-15T01:14:08.080Z,90.47
2022-11-15T01:15:07.949Z,90.99
2022-11-15T01:16:07.927Z,90.47
2022-11-15T01:17:07.894Z,90.37
2022-11-15T01:18:07.858Z,91.13
2022-11-15T01:19:08.795Z,90.68
2022-11-15T01:20:07.859Z,91.50
2022-11-15T01:21:07.854Z,91.09
2022-11-15T01:22:07.891Z,91.03
2022-11-15T01:23:07.759Z,91.80
2022-11-15T01:24:07.774Z,91.50
2022-11-15T01:25:07.911Z,91.19
2022-11-15T01:26:07.815Z,91.50
2022-11-15T01:27:07.858Z,90.68
2022-11-15T01:28:07.858Z,90.58
2022-11-15T01:29:07.824Z,91.19
2022-11-15T01:30:07.916Z,90.99
2022-11-15T01:31:07.798Z,91.64
2022-11-15T01:32:07.776Z,91.64
2022-11-15T01:33:07.846Z,91.50
2022-11-15T01:34:07.798Z,91.39
2022-11-15T01:35:07.857Z,90.72
2022-11-15T01:36:08.083Z,91.33
2022-11-15T01:37:07.828Z,91.50
2022-11-15T01:38:08.217Z,91.33
2022-11-15T01:39:08.755Z,91.23
2022-11-15T01:40:07.679Z,90.72
2022-11-15T01:41:07.718Z,91.23
2022-11-15T01:42:07.634Z,90.92
2022-11-15T01:43:07.744Z,91.23
2022-11-15T01:44:07.622Z,90.52
2022-11-15T01:45:07.639Z,91.13
2022-11-15T01:46:07.789Z,90.21
2022-11-15T01:47:07.676Z,90.77
2022-11-15T01:48:07.669Z,90.92
2022-11-15T01:49:07.657Z,91.07
2022-11-15T01:50:07.648Z,91.78
2022-11-15T01:51:07.652Z,91.69
2022-11-15T01:52:07.662Z,91.52
2022-11-15T01:53:07.650Z,91.78
2022-11-15T01:54:07.730Z,91.17
2022-11-15T01:55:07.675Z,92.03
2022-11-15T01:56:07.675Z,92.34
2022-11-15T01:57:07.554Z,92.24
2022-11-15T01:58:07.539Z,91.83
2022-11-15T01:59:07.581Z,91.87
2022-11-15T02:00:07.543Z,92.79
2022-11-15T02:01:07.547Z,91.97
2022-11-15T02:02:07.519Z,91.87
2022-11-15T02:03:07.493Z,91.87
2022-11-15T02:04:07.574Z,92.18
2022-11-15T02:05:07.629Z,92.59
2022-11-15T02:06:07.569Z,93.04
2022-11-15T02:07:07.575Z,93.08
2022-11-15T02:08:07.542Z,93.08
2022-11-15T02:09:07.537Z,93.08
2022-11-15T02:10:07.523Z,93.19
2022-11-15T02:11:07.529Z,92.68
2022-11-15T02:12:07.562Z,92.68
2022-11-15T02:13:07.500Z,92.61
2022-11-15T02:14:07.541Z,92.93
2022-11-15T02:15:07.514Z,92.61
2022-11-15T02:16:07.453Z,91.80
2022-11-15T02:17:07.406Z,92.10
2022-11-15T02:18:07.391Z,92.41
2022-11-15T02:19:07.520Z,92.76
2022-11-15T02:20:08.412Z,92.97
2022-11-15T02:21:07.385Z,93.38
2022-11-15T02:22:07.435Z,93.99
2022-11-15T02:23:07.502Z,93.68
2022-11-15T02:24:07.443Z,94.20
2022-11-15T02:25:07.593Z,95.23
2022-11-15T02:26:07.388Z,94.71
2022-11-15T02:27:07.392Z,95.32
2022-11-15T02:28:07.441Z,94.92
2022-11-15T02:29:07.385Z,95.69
2022-11-15T02:30:07.454Z,94.87
2022-11-15T02:31:07.383Z,95.59
2022-11-15T02:32:07.399Z,95.07
2022-11-15T02:33:07.371Z,95.90
2022-11-15T02:34:07.370Z,95.18
2022-11-15T02:35:07.357Z,95.28
2022-11-15T02:36:39.489Z,95.28
2022-11-15T02:37:40.293Z,94.52
2022-11-15T02:38:40.273Z,95.03
2022-11-15T02:39:40.239Z,95.86
2022-11-15T02:40:40.226Z,95.75
2022-11-15T02:41:40.364Z,95.86
2022-11-15T02:42:40.435Z,95.86
2022-11-15T02:43:40.334Z,95.75
2022-11-15T02:44:39.285Z,95.65
2022-11-15T02:45:40.308Z,95.61
2022-11-15T02:46:40.680Z,94.37
2022-11-15T02:47:40.290Z,94.78
2022-11-15T02:48:07.166Z,94.54
2022-11-15T02:49:07.225Z,94.58
2022-11-15T02:50:07.268Z,94.78
2022-11-15T02:51:07.252Z,94.74
2022-11-15T02:52:07.255Z,94.58
2022-11-15T02:53:07.217Z,95.20
2022-11-15T02:54:08.222Z,95.09
2022-11-15T02:55:07.152Z,94.64
2022-11-15T02:56:07.101Z,94.33
2022-11-15T02:57:07.151Z,94.12
2022-11-15T02:58:07.116Z,94.02
2022-11-15T02:59:07.193Z,93.82
2022-11-15T03:00:07.180Z,94.23
2022-11-15T03:01:07.186Z,93.82
2022-11-15T03:02:08.140Z,94.02
2022-11-15T03:03:07.236Z,94.02
2022-11-15T03:04:07.157Z,93.71
2022-11-15T03:05:07.259Z,93.82
2022-11-15T03:06:07.140Z,93.82
2022-11-15T03:07:07.245Z,93.82
2022-11-15T03:08:07.326Z,92.83
2022-11-15T03:09:07.208Z,92.90
2022-11-15T03:10:39.123Z,92.38
2022-11-15T03:11:07.010Z,92.38
2022-11-15T03:12:07.108Z,92.02
2022-11-15T03:13:07.144Z,91.97
2022-11-15T03:14:07.084Z,92.12
2022-11-15T03:15:07.095Z,91.82
2022-11-15T03:16:07.060Z,92.63
2022-11-15T03:17:41.586Z,91.82
2022-11-15T03:18:08.005Z,91.91
2022-11-15T03:19:07.032Z,92.43
2022-11-15T03:20:06.917Z,92.43
2022-11-15T03:21:06.924Z,92.68
2022-11-15T03:22:06.893Z,92.32
2022-11-15T03:23:06.940Z,91.96
2022-11-15T03:24:06.958Z,92.16
2022-11-15T03:25:06.915Z,92.27
2022-11-15T03:26:06.917Z,92.27
2022-11-15T03:27:06.885Z,92.47
2022-11-15T03:28:06.876Z,92.68
2022-11-15T03:29:07.006Z,93.13
2022-11-15T03:30:06.991Z,94.05
2022-11-15T03:31:06.972Z,92.82
2022-11-15T03:32:07.019Z,93.33
2022-11-15T03:33:06.957Z,93.33
2022-11-15T03:34:06.970Z,93.95
2022-11-15T03:35:06.973Z,93.74
2022-11-15T03:36:06.940Z,93.95
2022-11-15T03:37:06.910Z,94.98
2022-11-15T03:38:06.921Z,94.87
2022-11-15T03:39:06.903Z,94.98
2022-11-15T03:40:06.948Z,94.98
2022-11-15T03:41:06.913Z,94.67
2022-11-15T03:42:06.894Z,95.28
2022-11-15T03:43:06.828Z,95.90
2022-11-15T03:44:06.858Z,95.18
2022-11-15T03:45:06.800Z,95.79
2022-11-15T03:46:06.844Z,96.00
2022-11-15T03:47:06.769Z,96.31
2022-11-15T03:48:06.818Z,96.41
2022-11-15T03:49:06.823Z,96.31
2022-11-15T03:50:06.836Z,95.65
2022-11-15T03:51:06.917Z,95.24
2022-11-15T03:52:06.801Z,95.34
2022-11-15T03:53:06.904Z,95.14
2022-11-15T03:54:06.834Z,94.73
2022-11-15T03:55:06.882Z,94.62
2022-11-15T03:56:06.743Z,94.73
2022-11-15T03:57:06.844Z,95.24
2022-11-15T03:58:06.783Z,94.52
2022-11-15T03:59:06.745Z,94.73
2022-11-15T04:00:06.775Z,94.11
2022-11-15T04:01:06.793Z,94.11
2022-11-15T04:02:06.684Z,95.14
2022-11-15T04:03:06.736Z,95.14
2022-11-15T04:04:06.628Z,94.73
2022-11-15T04:05:06.623Z,95.75
2022-11-15T04:06:06.725Z,94.62
2022-11-15T04:07:06.816Z,95.44
2022-11-15T04:08:06.714Z,95.24
2022-11-15T04:09:06.671Z,95.28
2022-11-15T04:10:06.754Z,95.59
2022-11-15T04:11:06.688Z,95.34
2022-11-15T04:12:06.661Z,95.75
2022-11-15T04:13:06.690Z,94.93
2022-11-15T04:14:06.701Z,94.83
2022-11-15T04:15:06.687Z,94.62
2022-11-15T04:16:06.727Z,95.14
2022-11-15T04:17:06.590Z,94.73
2022-11-15T04:18:06.666Z,95.24
2022-11-15T04:19:06.650Z,94.93
2022-11-15T04:20:06.498Z,94.83
2022-11-15T04:21:06.496Z,95.65
2022-11-15T04:22:07.428Z,95.65
2022-11-15T04:23:06.534Z,94.89
2022-11-15T04:24:06.566Z,95.09
2022-11-15T04:25:06.494Z,94.07
2022-11-15T04:26:06.471Z,93.49
2022-11-15T04:27:06.499Z,93.55
2022-11-15T04:28:06.577Z,93.80
2022-11-15T04:29:06.574Z,93.76
2022-11-15T04:30:06.529Z,93.45
2022-11-15T04:31:06.537Z,93.80
2022-11-15T04:32:06.497Z,93.80
2022-11-15T04:33:06.497Z,93.90
2022-11-15T04:34:06.539Z,93.60
2022-11-15T04:35:06.571Z,94.05
2022-11-15T04:36:06.463Z,93.80
2022-11-15T04:37:06.525Z,93.49
2022-11-15T04:38:06.455Z,93.60
2022-11-15T04:39:06.522Z,94.11
2022-11-15T04:40:06.921Z,93.90
2022-11-15T04:41:06.447Z,93.70
2022-11-15T04:42:06.361Z,93.60
2022-11-15T04:43:06.384Z,93.90
2022-11-15T04:44:06.366Z,93.85
2022-11-15T04:45:06.538Z,93.39
2022-11-15T04:46:06.371Z,93.19
2022-11-15T04:47:06.335Z,92.98
2022-11-15T04:48:06.327Z,92.88
2022-11-15T04:49:06.324Z,93.23
2022-11-15T04:50:06.385Z,94.01
2022-11-15T04:51:06.406Z,93.90
2022-11-15T04:52:06.343Z,93.54
2022-11-15T04:53:06.349Z,94.15
2022-11-15T04:54:06.339Z,94.15
2022-11-15T04:55:08.317Z,93.85
2022-11-15T04:56:07.375Z,93.95
2022-11-15T04:57:06.397Z,93.95
2022-11-15T04:58:06.407Z,94.15
2022-11-15T04:59:06.336Z,93.85
2022-11-15T05:00:06.378Z,93.54
2022-11-15T05:01:06.276Z,93.23
2022-11-15T05:02:06.263Z,93.89
2022-11-15T05:03:06.234Z,93.59
2022-11-15T05:04:06.293Z,94.51
2022-11-15T05:05:06.231Z,94.36
2022-11-15T05:06:06.192Z,94.30
2022-11-15T05:07:06.246Z,94.20
2022-11-15T05:08:06.140Z,93.38
2022-11-15T05:09:06.269Z,93.07
2022-11-15T05:10:06.254Z,92.40
2022-11-15T05:11:06.249Z,92.29
2022-11-15T05:12:06.266Z,92.19
2022-11-15T05:13:06.244Z,91.82
2022-11-15T05:14:06.206Z,92.58
2022-11-15T05:15:06.247Z,93.04
2022-11-15T05:16:06.193Z,92.89
2022-11-15T05:17:06.222Z,94.17
2022-11-15T05:18:06.228Z,93.65
2022-11-15T05:19:06.239Z,93.71
2022-11-15T05:20:06.143Z,94.84
2022-11-15T05:21:06.262Z,95.46
2022-11-15T05:22:06.073Z,95.42
2022-11-15T05:23:06.138Z,95.83
2022-11-15T05:24:06.064Z,96.03
2022-11-15T05:25:06.054Z,95.42
2022-11-15T05:26:09.142Z,95.57
2022-11-15T05:27:07.196Z,95.52
2022-11-15T05:28:06.093Z,95.37
2022-11-15T05:29:06.112Z,94.85
2022-11-15T05:30:06.090Z,95.06
2022-11-15T05:31:06.058Z,95.17
2022-11-15T05:32:06.079Z,95.74
2022-11-15T05:33:06.112Z,95.02
2022-11-15T05:34:06.166Z,95.23
2022-11-15T05:35:06.026Z,95.69
2022-11-15T05:36:06.078Z,95.28
2022-11-15T05:37:05.955Z,94.92
2022-11-15T05:38:05.985Z,94.71
2022-11-15T05:39:06.049Z,96.20
2022-11-15T05:40:05.993Z,94.87
2022-11-15T05:41:05.922Z,95.39
2022-11-15T05:42:05.910Z,95.49
2022-11-15T05:43:05.947Z,95.28
2022-11-15T05:44:06.054Z,95.24
2022-11-15T05:45:06.120Z,95.28
2022-11-15T05:46:05.985Z,94.83
2022-11-15T05:47:05.984Z,95.34
2022-11-15T05:48:05.970Z,95.95
2022-11-15T05:49:05.978Z,95.50
2022-11-15T05:50:05.974Z,94.89
2022-11-15T05:51:06.054Z,94.78
2022-11-15T05:52:05.904Z,95.70
2022-11-15T05:53:05.937Z,94.54
2022-11-15T05:54:05.929Z,95.15
2022-11-15T05:55:05.900Z,94.95
2022-11-15T05:56:05.938Z,95.25
2022-11-15T05:57:05.897Z,94.84
2022-11-15T05:58:05.882Z,94.12
2022-11-15T05:59:05.898Z,94.43
2022-11-15T06:00:05.851Z,94.02
2022-11-15T06:01:05.760Z,93.77
2022-11-15T06:02:05.953Z,93.57
2022-11-15T06:03:05.853Z,93.37
2022-11-15T06:04:05.887Z,93.67
2022-11-15T06:05:05.768Z,93.67
2022-11-15T06:06:05.830Z,93.63
2022-11-15T06:07:05.965Z,93.57
2022-11-15T06:08:05.828Z,93.43
2022-11-15T06:09:05.796Z,93.73
2022-11-15T06:10:05.817Z,93.84
2022-11-15T06:11:05.792Z,93.79
2022-11-15T06:12:05.810Z,93.07
2022-11-15T06:13:05.820Z,92.77
2022-11-15T06:14:05.748Z,92.46
2022-11-15T06:15:05.752Z,92.56
2022-11-15T06:16:05.766Z,92.52
2022-11-15T06:17:11.018Z,91.91
2022-11-15T06:18:07.778Z,91.95
2022-11-15T06:19:05.675Z,92.42
2022-11-15T06:20:05.642Z,91.80
2022-11-15T06:21:05.644Z,92.15
2022-11-15T06:22:05.634Z,91.64
2022-11-15T06:23:05.834Z,91.39
2022-11-15T06:26:02.740Z,91.23
2022-11-15T06:27:03.991Z,91.44
2022-11-15T06:28:03.971Z,92.05
2022-11-15T06:29:03.938Z,92.05
2022-11-15T06:30:04.037Z,91.85
2022-11-15T06:31:03.981Z,92.15
2022-11-15T06:32:03.936Z,92.50
2022-11-15T06:33:04.000Z,91.95
2022-11-15T06:34:03.981Z,92.10
2022-11-15T06:35:03.901Z,91.69
2022-11-15T06:36:03.866Z,91.99
2022-11-15T06:37:03.881Z,91.89
2022-11-15T06:38:03.941Z,92.03
2022-11-15T06:39:03.880Z,92.60
2022-11-15T06:40:03.871Z,92.55
2022-11-15T06:41:03.783Z,92.85
2022-11-15T06:42:03.793Z,92.85
2022-11-15T06:43:03.815Z,93.26
2022-11-15T06:44:03.709Z,92.96
2022-11-15T06:45:03.845Z,92.90
2022-11-15T06:46:03.766Z,93.20
2022-11-15T06:47:03.751Z,93.00
2022-11-15T06:48:03.726Z,93.30
2022-11-15T06:49:08.352Z,93.00
2022-11-15T06:50:05.935Z,92.69
2022-11-15T06:51:03.797Z,92.38
2022-11-15T06:52:03.829Z,92.18
2022-11-15T06:53:03.779Z,92.08
2022-11-15T06:54:03.854Z,91.87
2022-11-15T06:55:03.842Z,91.67
2022-11-15T06:56:03.748Z,91.87
2022-11-15T06:57:03.740Z,91.61
2022-11-15T06:58:03.752Z,91.61
2022-11-15T06:59:03.711Z,92.12
2022-11-15T07:00:03.758Z,93.29
2022-11-15T07:01:03.816Z,93.80
2022-11-15T07:02:03.614Z,93.90
2022-11-15T07:03:03.772Z,95.18
2022-11-15T07:04:03.618Z,95.90
2022-11-15T07:05:03.650Z,95.94
2022-11-15T07:06:07.407Z,96.56
2022-11-15T07:07:04.773Z,96.56
2022-11-15T07:08:03.589Z,95.84
2022-11-15T07:09:03.653Z,96.45
2022-11-15T07:10:03.670Z,94.92
2022-11-15T07:11:03.668Z,95.12
2022-11-15T07:12:07.646Z,95.06
2022-11-15T07:13:04.687Z,95.37
2022-11-15T07:14:03.624Z,96.19
2022-11-15T07:15:03.661Z,96.60
2022-11-15T07:16:03.595Z,96.91
2022-11-15T07:17:03.693Z,97.42
2022-11-15T07:18:03.646Z,97.42
2022-11-15T07:19:03.682Z,97.02
2022-11-15T07:20:03.556Z,96.81
2022-11-15T07:21:03.568Z,96.15
2022-11-15T07:22:03.458Z,96.15
2022-11-15T07:23:03.479Z,95.94
2022-11-15T07:24:03.446Z,95.69
2022-11-15T07:25:03.574Z,95.49
2022-11-15T07:26:03.484Z,95.49
2022-11-15T07:27:03.586Z,95.84
2022-11-15T07:28:03.616Z,96.20
2022-11-15T07:29:03.512Z,95.84
2022-11-15T07:30:03.623Z,96.56
2022-11-15T07:31:03.492Z,96.66
2022-11-15T07:32:03.507Z,96.72
2022-11-15T07:33:03.464Z,96.41
2022-11-15T07:34:03.560Z,95.49
2022-11-15T07:35:03.454Z,96.10
2022-11-15T07:36:03.477Z,95.75
2022-11-15T07:37:03.480Z,95.54
2022-11-15T07:38:03.490Z,95.14
2022-11-15T07:39:03.447Z,94.93
2022-11-15T07:40:03.338Z,95.44
2022-11-15T07:41:03.386Z,95.34
2022-11-15T07:42:03.293Z,95.03
2022-11-15T07:43:03.335Z,95.54
2022-11-15T07:44:03.317Z,95.49
2022-11-15T07:45:03.354Z,95.24
2022-11-15T07:46:03.297Z,94.93
2022-11-15T07:47:03.270Z,94.89
2022-11-15T07:48:03.299Z,94.68
2022-11-15T07:49:03.308Z,93.66
2022-11-15T07:50:03.465Z,94.07
2022-11-15T07:51:03.353Z,93.71
2022-11-15T07:52:03.336Z,93.66
2022-11-15T07:53:03.322Z,93.41
2022-11-15T07:54:03.333Z,93.00
2022-11-15T07:55:03.348Z,92.38
2022-11-15T07:56:03.460Z,91.97
2022-11-15T07:57:07.252Z,91.97
2022-11-15T07:58:04.320Z,92.49
2022-11-15T07:59:03.364Z,92.38
2022-11-15T08:00:03.331Z,92.79
2022-11-15T08:01:03.370Z,92.38
2022-11-15T08:02:03.397Z,92.34
2022-11-15T08:03:03.219Z,92.85
2022-11-15T08:04:03.254Z,92.44
2022-11-15T08:05:03.204Z,92.30
2022-11-15T08:06:03.159Z,91.69
2022-11-15T08:07:03.282Z,91.95
2022-11-15T08:08:03.159Z,92.15
2022-11-15T08:09:03.291Z,91.64
2022-11-15T08:10:03.239Z,90.72
2022-11-15T08:11:03.236Z,91.09
2022-11-15T08:12:03.288Z,90.99
2022-11-15T08:13:03.335Z,90.68
2022-11-15T08:14:03.601Z,90.99
2022-11-15T08:15:03.194Z,90.64
2022-11-15T08:16:03.340Z,90.53
2022-11-15T08:17:03.220Z,90.23
2022-11-15T08:18:03.293Z,89.47
2022-11-15T08:22:30.930Z,89.37
2022-11-15T08:25:24.366Z,90.23
2022-11-15T08:28:17.789Z,89.67
2022-11-15T08:31:16.973Z,88.51
2022-11-15T08:32:50.194Z,88.20
2022-11-15T08:33:18.147Z,88.00
2022-11-15T08:34:18.100Z,88.06
2022-11-15T08:35:18.166Z,87.85
2022-11-15T08:36:18.315Z,87.76
2022-11-15T08:37:18.150Z,86.63
2022-11-15T08:38:18.139Z,87.35
2022-11-15T08:39:18.207Z,87.00
2022-11-15T08:40:18.305Z,86.94
2022-11-15T08:41:18.193Z,87.20
2022-11-15T08:42:19.980Z,87.30
2022-11-15T08:43:19.171Z,87.00
2022-11-15T08:44:18.221Z,87.30
2022-11-15T08:45:18.149Z,86.96
2022-11-15T08:46:18.197Z,87.16
2022-11-15T08:47:18.165Z,86.86
2022-11-15T08:48:18.092Z,85.74
2022-11-15T08:49:18.093Z,85.57
2022-11-15T08:50:18.126Z,85.57
2022-11-15T08:51:18.140Z,85.77
2022-11-15T08:52:18.161Z,84.86
2022-11-15T08:53:18.155Z,85.57
2022-11-15T08:54:18.081Z,85.57
2022-11-15T08:55:18.056Z,85.68
2022-11-15T08:56:17.995Z,85.47
2022-11-15T08:57:17.958Z,85.61
2022-11-15T08:58:18.014Z,86.22
2022-11-15T08:59:18.096Z,85.88
2022-11-15T09:00:17.937Z,86.22
2022-11-15T09:01:18.681Z,86.33
2022-11-15T09:02:18.934Z,85.82
2022-11-15T09:03:17.927Z,85.61
2022-11-15T09:04:18.007Z,85.88
2022-11-15T09:05:17.997Z,85.68
2022-11-15T09:06:17.987Z,86.29
2022-11-15T09:07:18.027Z,85.57
2022-11-15T09:08:47.041Z,85.37
2022-11-15T09:09:19.941Z,85.53
2022-11-15T09:10:17.995Z,85.63
2022-11-15T09:11:17.949Z,85.74
2022-11-15T09:12:17.954Z,85.28
2022-11-15T09:13:17.958Z,84.72
2022-11-15T09:14:18.025Z,84.98
2022-11-15T09:15:17.896Z,84.17
2022-11-15T09:16:17.929Z,84.58
2022-11-15T09:17:23.194Z,83.86
2022-11-15T09:18:22.240Z,84.84
2022-11-15T09:19:17.948Z,83.31
2022-11-15T09:20:17.989Z,83.21
2022-11-15T09:21:17.780Z,82.70
2022-11-15T09:22:17.756Z,83.31
2022-11-15T09:23:17.850Z,83.21
2022-11-15T09:24:17.933Z,82.80
2022-11-15T09:25:17.912Z,83.25
2022-11-15T09:26:17.998Z,84.64
2022-11-15T09:27:17.841Z,84.43
2022-11-15T09:28:17.852Z,83.82
2022-11-15T09:29:17.848Z,83.62
2022-11-15T09:30:17.835Z,83.62
2022-11-15T09:31:21.025Z,83.11
2022-11-15T09:32:18.873Z,82.90
2022-11-15T09:33:17.773Z,83.31
2022-11-15T09:34:17.830Z,82.97
2022-11-15T09:35:17.795Z,82.80
2022-11-15T09:36:17.835Z,83.21
2022-11-15T09:37:17.763Z,82.87
2022-11-15T09:38:17.814Z,83.62
2022-11-15T09:39:17.689Z,84.29
2022-11-15T09:40:17.669Z,83.37
2022-11-15T09:41:17.679Z,82.73
2022-11-15T09:42:17.809Z,83.54
2022-11-15T09:43:17.652Z,84.05
2022-11-15T09:44:21.170Z,82.89
2022-11-15T09:45:19.662Z,82.07
2022-11-15T09:46:17.735Z,81.77
2022-11-15T09:47:17.818Z,81.98
2022-11-15T09:48:17.682Z,82.24
2022-11-15T09:49:17.765Z,82.24
2022-11-15T09:50:17.661Z,81.93
2022-11-15T09:51:17.839Z,81.73
2022-11-15T09:52:17.699Z,81.93
2022-11-15T09:53:17.727Z,81.63
2022-11-15T09:55:19.622Z,80.88
2022-11-15T09:56:17.704Z,80.78
2022-11-15T09:57:17.625Z,80.37
2022-11-15T09:58:17.696Z,80.27
2022-11-15T09:59:17.700Z,80.92
2022-11-15T10:00:44.777Z,80.82
2022-11-15T10:01:19.543Z,80.24
2022-11-15T10:02:17.526Z,81.06
2022-11-15T10:03:17.527Z,81.57
2022-11-15T10:04:17.576Z,82.68
2022-11-15T10:05:17.505Z,82.99
2022-11-15T10:06:17.488Z,83.06
2022-11-15T10:07:17.583Z,82.85
2022-11-15T10:08:17.555Z,82.45
2022-11-15T10:09:22.565Z,82.45
2022-11-15T10:10:19.567Z,80.78
2022-11-15T10:12:19.452Z,80.68
2022-11-15T10:13:17.578Z,80.27
2022-11-15T10:14:17.724Z,80.74
2022-11-15T10:15:17.507Z,79.63
2022-11-15T10:16:17.487Z,80.33
2022-11-15T10:17:17.497Z,79.90
2022-11-15T10:18:17.500Z,78.98
2022-11-15T10:19:17.483Z,79.22
2022-11-15T10:20:17.497Z,80.44
2022-11-15T10:21:17.480Z,78.61
2022-11-15T10:22:17.499Z,79.02
2022-11-15T10:23:18.467Z,80.33
2022-11-15T10:24:17.471Z,79.02
2022-11-15T10:25:17.494Z,79.72
2022-11-15T10:26:17.429Z,80.37
2022-11-15T10:27:17.460Z,80.24
2022-11-15T10:28:17.499Z,80.44
2022-11-15T10:29:17.328Z,80.24
2022-11-15T10:30:17.346Z,79.83
2022-11-15T10:31:17.478Z,80.94
2022-11-15T10:32:17.377Z,80.44
2022-11-15T10:33:17.324Z,81.52
2022-11-15T10:34:17.370Z,80.74
2022-11-15T10:35:17.526Z,80.80
2022-11-15T10:36:17.421Z,80.80
2022-11-15T10:37:17.466Z,80.19
2022-11-15T10:38:17.492Z,80.30
2022-11-15T10:39:17.675Z,80.30
2022-11-15T10:40:17.373Z,79.79
2022-11-15T10:41:17.378Z,80.19
2022-11-15T10:42:18.051Z,80.33
2022-11-15T10:43:18.483Z,80.60
2022-11-15T10:44:17.340Z,80.71
2022-11-15T10:45:17.344Z,80.71
2022-11-15T10:46:44.477Z,80.71
2022-11-15T10:47:19.295Z,80.50
2022-11-15T10:48:17.319Z,80.80
2022-11-15T10:49:17.332Z,80.80
2022-11-15T10:50:17.304Z,80.71
2022-11-15T10:51:17.227Z,80.91
2022-11-15T10:52:17.216Z,80.60
2022-11-15T10:53:17.178Z,80.60
2022-11-15T10:54:21.003Z,80.71
2022-11-15T10:55:18.148Z,80.80
2022-11-15T10:56:17.147Z,80.66
2022-11-15T10:57:17.282Z,80.36
2022-11-15T10:58:17.286Z,80.36
2022-11-15T10:59:17.259Z,80.40
2022-11-15T11:00:17.320Z,80.40
2022-11-15T11:01:17.309Z,80.66
2022-11-15T11:02:17.111Z,80.16
2022-11-15T11:03:17.428Z,79.85
2022-11-15T11:04:17.237Z,80.16
2022-11-15T11:05:17.180Z,80.26
2022-11-15T11:06:17.320Z,79.99
2022-11-15T11:07:17.213Z,80.66
2022-11-15T11:08:17.172Z,80.16
2022-11-15T11:09:17.167Z,79.69
2022-11-15T11:10:44.237Z,80.30
2022-11-15T11:11:19.048Z,80.77
2022-11-15T11:12:17.099Z,80.66
2022-11-15T11:13:17.148Z,81.18
2022-11-15T11:14:17.147Z,81.13
2022-11-15T11:15:17.090Z,80.12
2022-11-15T11:16:17.208Z,79.61
2022-11-15T11:17:17.084Z,79.61
2022-11-15T11:18:16.984Z,80.32
2022-11-15T11:19:17.050Z,79.72
2022-11-15T11:20:17.052Z,79.45
2022-11-15T11:21:16.986Z,79.96
2022-11-15T11:22:17.182Z,80.16
2022-11-15T11:23:17.018Z,80.40
2022-11-15T11:24:17.073Z,80.66
2022-11-15T11:25:17.100Z,80.57
2022-11-15T11:26:16.999Z,80.93
2022-11-15T11:27:17.041Z,80.26
2022-11-15T11:28:17.030Z,80.02
2022-11-15T11:29:16.995Z,80.43
2022-11-15T11:30:18.098Z,80.57
2022-11-15T11:31:17.020Z,80.46
2022-11-15T11:32:17.073Z,80.57
2022-11-15T11:33:17.023Z,80.66
2022-11-15T11:34:17.044Z,80.77
2022-11-15T11:35:17.139Z,80.63
2022-11-15T11:37:24.476Z,80.32
2022-11-15T11:38:25.832Z,80.02
2022-11-15T11:39:25.861Z,79.61
2022-11-15T11:40:25.872Z,80.43
2022-11-15T11:41:25.698Z,79.92
2022-11-15T11:42:25.640Z,80.73
2022-11-15T11:43:25.616Z,80.83
2022-11-15T11:44:25.620Z,80.02
2022-11-15T11:45:25.653Z,79.92
2022-11-15T11:46:25.628Z,79.61
2022-11-15T11:47:25.747Z,79.72
2022-11-15T11:48:25.700Z,80.19
2022-11-15T11:49:25.575Z,79.78
2022-11-15T11:50:25.734Z,79.07
2022-11-15T11:51:25.671Z,79.17
2022-11-15T11:52:25.649Z,78.87
2022-11-15T11:53:25.703Z,79.98
2022-11-15T11:54:25.745Z,80.19
2022-11-15T11:55:25.669Z,78.87
2022-11-15T11:56:25.738Z,79.31
2022-11-15T11:57:25.630Z,79.61
2022-11-15T11:58:25.625Z,79.21
2022-11-15T11:59:25.749Z,78.91
2022-11-15T12:00:25.618Z,79.31
2022-11-15T12:01:25.699Z,79.88
2022-11-15T12:02:25.576Z,79.58
2022-11-15T12:03:25.678Z,79.68
2022-11-15T12:04:25.607Z,79.85
2022-11-15T12:05:25.669Z,79.34
2022-11-15T12:06:25.588Z,79.94
2022-11-15T12:07:25.852Z,79.38
2022-11-15T12:08:25.591Z,79.78
2022-11-15T12:09:25.495Z,78.97
2022-11-15T12:10:25.619Z,79.58
2022-11-15T12:11:25.506Z,79.68
2022-11-15T12:12:25.784Z,79.88
2022-11-15T12:13:25.449Z,78.97
2022-11-15T12:14:25.608Z,78.63
2022-11-15T12:15:25.419Z,79.44
2022-11-15T12:16:25.478Z,79.64
2022-11-15T12:17:25.379Z,79.85
2022-11-15T12:18:25.535Z,79.54
2022-11-15T12:19:25.620Z,79.00
2022-11-15T12:20:25.469Z,78.39
2022-11-15T12:21:28.511Z,78.75
2022-11-15T12:22:26.413Z,78.05
2022-11-15T12:23:25.730Z,77.68
2022-11-15T12:24:25.782Z,78.19
2022-11-15T12:25:25.415Z,77.17
2022-11-15T12:26:25.443Z,77.61
2022-11-15T12:27:26.848Z,78.08
2022-11-15T12:28:26.490Z,78.12
2022-11-15T12:29:25.651Z,77.88
2022-11-15T12:30:25.407Z,77.51
2022-11-15T12:31:25.407Z,76.29
2022-11-15T12:32:25.413Z,76.84
2022-11-15T12:33:25.333Z,77.75
2022-11-15T12:34:25.436Z,77.01
2022-11-15T12:35:25.440Z,76.80
2022-11-15T12:36:25.400Z,77.25
2022-11-15T12:37:25.322Z,77.51
2022-11-15T12:38:25.676Z,77.07
2022-11-15T12:39:25.298Z,77.07
2022-11-15T12:40:25.224Z,77.07
2022-11-15T12:41:25.319Z,77.51
2022-11-15T12:42:25.214Z,76.56
2022-11-15T12:43:25.187Z,77.07
2022-11-15T12:44:25.215Z,77.68
2022-11-15T12:45:25.242Z,76.93
2022-11-15T12:46:25.280Z,75.42
2022-11-15T12:47:25.267Z,75.52
2022-11-15T12:48:25.281Z,75.62
2022-11-15T12:49:25.288Z,75.92
2022-11-15T12:50:25.356Z,76.12
2022-11-15T12:51:25.253Z,76.09
2022-11-15T12:52:25.252Z,75.11
2022-11-15T12:53:25.180Z,77.03
2022-11-15T12:54:25.232Z,75.68
2022-11-15T12:55:25.188Z,76.09
2022-11-15T12:56:26.292Z,74.57
2022-11-15T12:57:25.185Z,75.99
2022-11-15T12:58:25.135Z,74.27
2022-11-15T12:59:25.174Z,73.86
2022-11-15T13:00:25.500Z,75.07
2022-11-15T13:01:26.171Z,74.71
2022-11-15T13:02:25.073Z,74.20
2022-11-15T13:03:25.138Z,74.16
2022-11-15T13:04:25.069Z,74.57
2022-11-15T13:05:25.180Z,73.93
2022-11-15T13:06:25.067Z,74.54